sensor_id;sensor_type;location;lat;lon;timestamp;pressure;altitude;pressure_sealevel;temperature;humidity
84224;BME280;74353;51.208;0.304;2023-12-20T00:02:05;101999.41;;;6.85;48.64
84224;BME280;74353;51.208;0.304;2023-12-20T00:04:33;102002.13;;;6.88;48.46
84224;BME280;74353;51.208;0.304;2023-12-20T00:06:59;102004.80;;;6.66;48.93
84224;BME280;74353;51.208;0.304;2023-12-20T00:09:25;102009.66;;;6.54;48.98
84224;BME280;74353;51.208;0.304;2023-12-20T00:11:51;102007.75;;;6.50;48.92
84224;BME280;74353;51.208;0.304;2023-12-20T00:14:18;102009.13;;;6.47;49.02
84224;BME280;74353;51.208;0.304;2023-12-20T00:16:43;102012.04;;;6.64;48.55
84224;BME280;74353;51.208;0.304;2023-12-20T00:19:08;102016.13;;;6.57;48.64
84224;BME280;74353;51.208;0.304;2023-12-20T00:21:34;102016.58;;;6.79;48.31
84224;BME280;74353;51.208;0.304;2023-12-20T00:24:00;102021.12;;;6.54;48.63
84224;BME280;74353;51.208;0.304;2023-12-20T00:26:26;102020.99;;;6.71;48.67
84224;BME280;74353;51.208;0.304;2023-12-20T00:28:54;102017.61;;;6.50;48.68
84224;BME280;74353;51.208;0.304;2023-12-20T00:31:19;102014.93;;;6.61;48.35
84224;BME280;74353;51.208;0.304;2023-12-20T00:33:46;102016.00;;;6.49;48.66
84224;BME280;74353;51.208;0.304;2023-12-20T00:36:13;102017.65;;;6.25;49.07
84224;BME280;74353;51.208;0.304;2023-12-20T00:38:39;102021.56;;;6.46;48.89
84224;BME280;74353;51.208;0.304;2023-12-20T00:41:07;102025.56;;;6.23;49.15
84224;BME280;74353;51.208;0.304;2023-12-20T00:43:33;102023.97;;;6.67;48.79
84224;BME280;74353;51.208;0.304;2023-12-20T00:45:58;102024.93;;;6.72;49.07
84224;BME280;74353;51.208;0.304;2023-12-20T00:48:24;102020.61;;;6.78;48.96
84224;BME280;74353;51.208;0.304;2023-12-20T00:50:49;102029.62;;;6.40;48.74
84224;BME280;74353;51.208;0.304;2023-12-20T00:53:19;102033.63;;;6.82;48.95
84224;BME280;74353;51.208;0.304;2023-12-20T00:55:45;102033.52;;;6.46;48.70
84224;BME280;74353;51.208;0.304;2023-12-20T00:58:11;102029.71;;;6.84;48.90
84224;BME280;74353;51.208;0.304;2023-12-20T01:00:37;102018.20;;;6.33;49.03
84224;BME280;74353;51.208;0.304;2023-12-20T01:03:05;102005.41;;;6.53;48.78
84224;BME280;74353;51.208;0.304;2023-12-20T01:05:32;101999.57;;;6.29;49.25
84224;BME280;74353;51.208;0.304;2023-12-20T01:07:59;102003.63;;;6.83;49.26
84224;BME280;74353;51.208;0.304;2023-12-20T01:10:27;102010.52;;;6.29;49.37
84224;BME280;74353;51.208;0.304;2023-12-20T01:12:53;102010.14;;;6.45;49.24
84224;BME280;74353;51.208;0.304;2023-12-20T01:15:18;102000.24;;;6.35;49.39
84224;BME280;74353;51.208;0.304;2023-12-20T01:17:43;102004.62;;;6.73;49.27
84224;BME280;74353;51.208;0.304;2023-12-20T01:20:10;102005.03;;;6.96;49.16
84224;BME280;74353;51.208;0.304;2023-12-20T01:22:35;102007.79;;;6.28;49.33
84224;BME280;74353;51.208;0.304;2023-12-20T01:25:01;102009.77;;;6.17;49.67
84224;BME280;74353;51.208;0.304;2023-12-20T01:27:28;102008.49;;;6.18;49.69
84224;BME280;74353;51.208;0.304;2023-12-20T01:29:53;102011.05;;;6.67;49.64
84224;BME280;74353;51.208;0.304;2023-12-20T01:32:20;102009.41;;;6.21;49.47
84224;BME280;74353;51.208;0.304;2023-12-20T01:34:46;102011.90;;;6.87;49.17
84224;BME280;74353;51.208;0.304;2023-12-20T01:37:13;102005.42;;;6.38;49.05
84224;BME280;74353;51.208;0.304;2023-12-20T01:39:39;102003.35;;;6.32;49.03
84224;BME280;74353;51.208;0.304;2023-12-20T01:42:05;102005.98;;;6.52;49.27
84224;BME280;74353;51.208;0.304;2023-12-20T01:44:30;101999.49;;;6.18;49.22
84224;BME280;74353;51.208;0.304;2023-12-20T01:46:57;101999.32;;;6.26;49.63
84224;BME280;74353;51.208;0.304;2023-12-20T01:49:22;101999.75;;;6.39;49.26
84224;BME280;74353;51.208;0.304;2023-12-20T01:51:48;102006.20;;;6.46;49.23
84224;BME280;74353;51.208;0.304;2023-12-20T01:54:14;102007.57;;;5.84;49.89
84224;BME280;74353;51.208;0.304;2023-12-20T01:56:40;102005.65;;;6.35;49.49
84224;BME280;74353;51.208;0.304;2023-12-20T01:59:07;102001.99;;;6.71;49.16
84224;BME280;74353;51.208;0.304;2023-12-20T02:01:32;102001.97;;;6.19;49.26
84224;BME280;74353;51.208;0.304;2023-12-20T02:03:59;102001.09;;;6.41;49.30
84224;BME280;74353;51.208;0.304;2023-12-20T02:06:29;102000.37;;;6.19;49.21
84224;BME280;74353;51.208;0.304;2023-12-20T02:08:58;102005.11;;;6.50;49.33
84224;BME280;74353;51.208;0.304;2023-12-20T02:11:21;102007.29;;;6.27;49.30
84224;BME280;74353;51.208;0.304;2023-12-20T02:13:47;102008.11;;;5.99;49.18
84224;BME280;74353;51.208;0.304;2023-12-20T02:16:13;102006.95;;;6.07;49.15
84224;BME280;74353;51.208;0.304;2023-12-20T02:18:41;102004.48;;;6.58;49.04
84224;BME280;74353;51.208;0.304;2023-12-20T02:21:09;101998.99;;;6.29;48.99
84224;BME280;74353;51.208;0.304;2023-12-20T02:23:36;101997.16;;;6.08;49.23
84224;BME280;74353;51.208;0.304;2023-12-20T02:26:04;101998.62;;;6.14;49.14
84224;BME280;74353;51.208;0.304;2023-12-20T02:28:31;101991.78;;;6.22;49.49
84224;BME280;74353;51.208;0.304;2023-12-20T02:30:57;101988.78;;;6.24;49.28
84224;BME280;74353;51.208;0.304;2023-12-20T02:33:23;101989.29;;;6.07;49.24
84224;BME280;74353;51.208;0.304;2023-12-20T02:35:50;101994.66;;;6.09;49.55
84224;BME280;74353;51.208;0.304;2023-12-20T02:38:16;101996.52;;;5.83;49.52
84224;BME280;74353;51.208;0.304;2023-12-20T02:40:41;102001.58;;;6.07;49.65
84224;BME280;74353;51.208;0.304;2023-12-20T02:43:08;102003.79;;;5.94;49.34
84224;BME280;74353;51.208;0.304;2023-12-20T02:45:36;102004.22;;;6.07;49.40
84224;BME280;74353;51.208;0.304;2023-12-20T02:48:04;102003.70;;;6.13;49.12
84224;BME280;74353;51.208;0.304;2023-12-20T02:50:29;102001.60;;;5.97;49.38
84224;BME280;74353;51.208;0.304;2023-12-20T02:52:56;101996.51;;;5.96;49.39
84224;BME280;74353;51.208;0.304;2023-12-20T02:55:20;101986.90;;;5.95;49.48
84224;BME280;74353;51.208;0.304;2023-12-20T02:57:46;101981.73;;;6.12;49.02
84224;BME280;74353;51.208;0.304;2023-12-20T03:00:13;101978.46;;;6.06;49.20
84224;BME280;74353;51.208;0.304;2023-12-20T03:02:37;101987.06;;;5.87;49.60
84224;BME280;74353;51.208;0.304;2023-12-20T03:05:03;101987.45;;;5.87;49.56
84224;BME280;74353;51.208;0.304;2023-12-20T03:07:30;101986.03;;;5.91;49.55
84224;BME280;74353;51.208;0.304;2023-12-20T03:09:58;101986.35;;;5.72;50.11
84224;BME280;74353;51.208;0.304;2023-12-20T03:12:24;101984.87;;;5.90;49.71
84224;BME280;74353;51.208;0.304;2023-12-20T03:14:49;101987.38;;;5.83;49.77
84224;BME280;74353;51.208;0.304;2023-12-20T03:17:16;101989.83;;;6.08;49.77
84224;BME280;74353;51.208;0.304;2023-12-20T03:19:41;101991.93;;;5.76;50.02
84224;BME280;74353;51.208;0.304;2023-12-20T03:22:08;101989.87;;;5.86;49.72
84224;BME280;74353;51.208;0.304;2023-12-20T03:24:34;101983.18;;;5.94;49.64
84224;BME280;74353;51.208;0.304;2023-12-20T03:26:59;101981.40;;;5.64;49.78
84224;BME280;74353;51.208;0.304;2023-12-20T03:29:25;101982.67;;;5.82;49.80
84224;BME280;74353;51.208;0.304;2023-12-20T03:31:50;101976.24;;;5.89;49.69
84224;BME280;74353;51.208;0.304;2023-12-20T03:34:15;101975.08;;;6.15;49.81
84224;BME280;74353;51.208;0.304;2023-12-20T03:36:40;101979.02;;;5.80;49.90
84224;BME280;74353;51.208;0.304;2023-12-20T03:39:08;101979.02;;;5.85;49.79
84224;BME280;74353;51.208;0.304;2023-12-20T03:41:34;101980.26;;;6.03;50.01
84224;BME280;74353;51.208;0.304;2023-12-20T03:44:02;101983.48;;;5.72;50.14
84224;BME280;74353;51.208;0.304;2023-12-20T03:46:27;101985.53;;;5.78;50.08
84224;BME280;74353;51.208;0.304;2023-12-20T03:48:53;101988.23;;;5.62;50.35
84224;BME280;74353;51.208;0.304;2023-12-20T03:51:19;101986.92;;;5.90;49.98
84224;BME280;74353;51.208;0.304;2023-12-20T03:53:46;101982.08;;;5.73;50.13
84224;BME280;74353;51.208;0.304;2023-12-20T03:56:13;101973.74;;;5.60;50.37
84224;BME280;74353;51.208;0.304;2023-12-20T03:58:38;101976.06;;;5.97;49.97
84224;BME280;74353;51.208;0.304;2023-12-20T04:01:09;101975.05;;;5.79;50.04
84224;BME280;74353;51.208;0.304;2023-12-20T04:03:33;101975.02;;;5.83;49.83
84224;BME280;74353;51.208;0.304;2023-12-20T04:06:03;101977.44;;;5.78;49.93
84224;BME280;74353;51.208;0.304;2023-12-20T04:08:25;101978.42;;;5.72;50.11
84224;BME280;74353;51.208;0.304;2023-12-20T04:10:50;101982.13;;;5.53;50.47
84224;BME280;74353;51.208;0.304;2023-12-20T04:13:17;101983.10;;;5.66;50.28
84224;BME280;74353;51.208;0.304;2023-12-20T04:15:44;101981.30;;;5.62;50.50
84224;BME280;74353;51.208;0.304;2023-12-20T04:18:11;101972.69;;;5.78;50.32
84224;BME280;74353;51.208;0.304;2023-12-20T04:20:38;101977.18;;;5.64;50.67
84224;BME280;74353;51.208;0.304;2023-12-20T04:23:04;101976.67;;;5.66;50.64
84224;BME280;74353;51.208;0.304;2023-12-20T04:25:29;101976.08;;;5.73;50.54
84224;BME280;74353;51.208;0.304;2023-12-20T04:27:55;101978.83;;;5.79;50.30
84224;BME280;74353;51.208;0.304;2023-12-20T04:30:20;101970.23;;;5.46;50.54
84224;BME280;74353;51.208;0.304;2023-12-20T04:32:48;101966.01;;;5.79;50.40
84224;BME280;74353;51.208;0.304;2023-12-20T04:35:14;101976.67;;;5.45;50.59
84224;BME280;74353;51.208;0.304;2023-12-20T04:37:42;101978.22;;;5.80;50.34
84224;BME280;74353;51.208;0.304;2023-12-20T04:40:08;101976.69;;;5.71;50.43
84224;BME280;74353;51.208;0.304;2023-12-20T04:42:33;101979.83;;;5.74;50.39
84224;BME280;74353;51.208;0.304;2023-12-20T04:44:58;101977.62;;;5.87;50.15
84224;BME280;74353;51.208;0.304;2023-12-20T04:47:24;101983.31;;;5.85;50.11
84224;BME280;74353;51.208;0.304;2023-12-20T04:49:50;101984.15;;;5.91;50.34
84224;BME280;74353;51.208;0.304;2023-12-20T04:52:17;101976.22;;;5.69;50.37
84224;BME280;74353;51.208;0.304;2023-12-20T04:54:43;101976.13;;;5.68;50.36
84224;BME280;74353;51.208;0.304;2023-12-20T04:57:09;101973.84;;;5.70;50.41
84224;BME280;74353;51.208;0.304;2023-12-20T04:59:37;101969.67;;;5.65;50.45
84224;BME280;74353;51.208;0.304;2023-12-20T05:02:05;101970.53;;;5.78;50.29
84224;BME280;74353;51.208;0.304;2023-12-20T05:04:30;101962.31;;;5.64;50.63
84224;BME280;74353;51.208;0.304;2023-12-20T05:06:57;101969.45;;;5.76;50.41
84224;BME280;74353;51.208;0.304;2023-12-20T05:09:24;101971.85;;;5.60;50.68
84224;BME280;74353;51.208;0.304;2023-12-20T05:11:49;101975.27;;;5.70;50.59
84224;BME280;74353;51.208;0.304;2023-12-20T05:14:18;101975.91;;;5.70;50.59
84224;BME280;74353;51.208;0.304;2023-12-20T05:16:46;101977.77;;;5.74;50.50
84224;BME280;74353;51.208;0.304;2023-12-20T05:19:11;101970.53;;;5.74;50.44
84224;BME280;74353;51.208;0.304;2023-12-20T05:21:39;101974.47;;;5.70;50.66
84224;BME280;74353;51.208;0.304;2023-12-20T05:24:05;101965.29;;;5.79;50.46
84224;BME280;74353;51.208;0.304;2023-12-20T05:26:30;101969.58;;;5.54;50.59
84224;BME280;74353;51.208;0.304;2023-12-20T05:28:58;101962.78;;;5.75;50.64
84224;BME280;74353;51.208;0.304;2023-12-20T05:31:23;101960.26;;;5.71;50.60
84224;BME280;74353;51.208;0.304;2023-12-20T05:33:49;101955.14;;;5.72;50.63
84224;BME280;74353;51.208;0.304;2023-12-20T05:36:17;101946.82;;;5.77;50.52
84224;BME280;74353;51.208;0.304;2023-12-20T05:38:43;101945.32;;;5.94;50.69
84224;BME280;74353;51.208;0.304;2023-12-20T05:41:09;101947.41;;;5.78;50.61
84224;BME280;74353;51.208;0.304;2023-12-20T05:43:35;101944.66;;;5.69;50.81
84224;BME280;74353;51.208;0.304;2023-12-20T05:46:02;101943.84;;;5.78;50.63
84224;BME280;74353;51.208;0.304;2023-12-20T05:48:27;101942.00;;;5.64;50.87
84224;BME280;74353;51.208;0.304;2023-12-20T05:50:53;101943.50;;;5.71;50.72
84224;BME280;74353;51.208;0.304;2023-12-20T05:53:19;101941.01;;;5.86;50.44
84224;BME280;74353;51.208;0.304;2023-12-20T05:55:49;101936.52;;;5.87;50.45
84224;BME280;74353;51.208;0.304;2023-12-20T05:58:14;101939.27;;;5.63;50.82
84224;BME280;74353;51.208;0.304;2023-12-20T06:00:43;101941.15;;;5.80;50.53
84224;BME280;74353;51.208;0.304;2023-12-20T06:03:09;101937.70;;;5.84;50.51
84224;BME280;74353;51.208;0.304;2023-12-20T06:05:35;101932.45;;;6.03;50.52
84224;BME280;74353;51.208;0.304;2023-12-20T06:08:01;101928.26;;;5.84;50.62
84224;BME280;74353;51.208;0.304;2023-12-20T06:10:27;101927.30;;;5.84;50.63
84224;BME280;74353;51.208;0.304;2023-12-20T06:12:54;101923.01;;;5.75;50.87
84224;BME280;74353;51.208;0.304;2023-12-20T06:15:20;101917.43;;;5.72;50.97
84224;BME280;74353;51.208;0.304;2023-12-20T06:17:46;101915.64;;;5.74;50.89
84224;BME280;74353;51.208;0.304;2023-12-20T06:20:11;101918.82;;;5.89;50.61
84224;BME280;74353;51.208;0.304;2023-12-20T06:22:39;101917.45;;;5.89;50.68
84224;BME280;74353;51.208;0.304;2023-12-20T06:25:05;101909.39;;;5.80;50.79
84224;BME280;74353;51.208;0.304;2023-12-20T06:27:32;101909.58;;;5.70;50.86
84224;BME280;74353;51.208;0.304;2023-12-20T06:29:57;101914.52;;;5.77;50.85
84224;BME280;74353;51.208;0.304;2023-12-20T06:32:23;101920.17;;;5.91;50.68
84224;BME280;74353;51.208;0.304;2023-12-20T06:34:53;101927.17;;;5.51;50.85
84224;BME280;74353;51.208;0.304;2023-12-20T06:37:20;101934.94;;;5.74;50.83
84224;BME280;74353;51.208;0.304;2023-12-20T06:39:47;101935.01;;;5.91;50.49
84224;BME280;74353;51.208;0.304;2023-12-20T06:42:14;101930.24;;;5.78;50.76
84224;BME280;74353;51.208;0.304;2023-12-20T06:44:40;101930.84;;;5.81;50.71
84224;BME280;74353;51.208;0.304;2023-12-20T06:47:07;101930.44;;;5.83;50.70
84224;BME280;74353;51.208;0.304;2023-12-20T06:49:34;101928.93;;;5.83;50.80
84224;BME280;74353;51.208;0.304;2023-12-20T06:51:59;101927.79;;;5.78;50.97
84224;BME280;74353;51.208;0.304;2023-12-20T06:54:24;101932.54;;;5.67;51.10
84224;BME280;74353;51.208;0.304;2023-12-20T06:56:50;101936.96;;;5.91;50.67
84224;BME280;74353;51.208;0.304;2023-12-20T06:59:17;101933.77;;;5.71;51.18
84224;BME280;74353;51.208;0.304;2023-12-20T07:01:48;101932.31;;;5.78;51.02
84224;BME280;74353;51.208;0.304;2023-12-20T07:04:10;101923.93;;;5.89;50.85
84224;BME280;74353;51.208;0.304;2023-12-20T07:06:38;101925.10;;;6.06;51.00
84224;BME280;74353;51.208;0.304;2023-12-20T07:09:04;101922.39;;;6.03;51.08
84224;BME280;74353;51.208;0.304;2023-12-20T07:11:30;101920.68;;;5.91;50.93
84224;BME280;74353;51.208;0.304;2023-12-20T07:13:56;101913.42;;;5.95;50.87
84224;BME280;74353;51.208;0.304;2023-12-20T07:16:22;101909.20;;;5.73;51.36
84224;BME280;74353;51.208;0.304;2023-12-20T07:18:47;101907.70;;;5.89;51.07
84224;BME280;74353;51.208;0.304;2023-12-20T07:21:14;101918.04;;;5.94;50.99
84224;BME280;74353;51.208;0.304;2023-12-20T07:23:41;101927.14;;;5.89;51.09
84224;BME280;74353;51.208;0.304;2023-12-20T07:26:06;101921.26;;;5.87;51.21
84224;BME280;74353;51.208;0.304;2023-12-20T07:28:35;101918.61;;;5.86;51.07
84224;BME280;74353;51.208;0.304;2023-12-20T07:31:03;101919.57;;;5.85;51.13
84224;BME280;74353;51.208;0.304;2023-12-20T07:33:28;101920.15;;;5.77;51.32
84224;BME280;74353;51.208;0.304;2023-12-20T07:35:53;101920.81;;;5.57;51.34
84224;BME280;74353;51.208;0.304;2023-12-20T07:38:21;101915.43;;;5.79;51.47
84224;BME280;74353;51.208;0.304;2023-12-20T07:40:46;101918.55;;;6.17;51.09
84224;BME280;74353;51.208;0.304;2023-12-20T07:43:11;101930.91;;;6.03;50.97
84224;BME280;74353;51.208;0.304;2023-12-20T07:45:39;101926.55;;;5.80;50.93
84224;BME280;74353;51.208;0.304;2023-12-20T07:48:07;101919.65;;;5.86;50.82
84224;BME280;74353;51.208;0.304;2023-12-20T07:50:33;101924.72;;;5.83;50.98
84224;BME280;74353;51.208;0.304;2023-12-20T07:53:00;101932.33;;;6.01;51.08
84224;BME280;74353;51.208;0.304;2023-12-20T07:55:27;101930.02;;;5.98;51.11
84224;BME280;74353;51.208;0.304;2023-12-20T07:57:53;101917.28;;;6.12;50.91
84224;BME280;74353;51.208;0.304;2023-12-20T08:00:19;101912.99;;;6.08;50.98
84224;BME280;74353;51.208;0.304;2023-12-20T08:02:46;101913.08;;;5.96;51.27
84224;BME280;74353;51.208;0.304;2023-12-20T08:05:12;101917.26;;;6.24;51.21
84224;BME280;74353;51.208;0.304;2023-12-20T08:07:37;101924.19;;;6.11;51.15
84224;BME280;74353;51.208;0.304;2023-12-20T08:10:03;101933.09;;;6.04;51.31
84224;BME280;74353;51.208;0.304;2023-12-20T08:12:29;101921.81;;;5.85;51.21
84224;BME280;74353;51.208;0.304;2023-12-20T08:14:56;101921.71;;;6.00;51.38
84224;BME280;74353;51.208;0.304;2023-12-20T08:17:21;101920.84;;;6.05;51.40
84224;BME280;74353;51.208;0.304;2023-12-20T08:19:48;101927.84;;;5.98;51.55
84224;BME280;74353;51.208;0.304;2023-12-20T08:22:14;101942.79;;;6.07;51.48
84224;BME280;74353;51.208;0.304;2023-12-20T08:24:40;101938.58;;;5.78;51.60
84224;BME280;74353;51.208;0.304;2023-12-20T08:27:08;101937.27;;;6.11;51.39
84224;BME280;74353;51.208;0.304;2023-12-20T08:29:33;101940.18;;;5.88;51.55
84224;BME280;74353;51.208;0.304;2023-12-20T08:32:00;101938.35;;;6.09;51.67
84224;BME280;74353;51.208;0.304;2023-12-20T08:34:25;101948.39;;;6.21;51.52
84224;BME280;74353;51.208;0.304;2023-12-20T08:36:53;101959.27;;;6.28;51.45
84224;BME280;74353;51.208;0.304;2023-12-20T08:39:20;101961.52;;;6.32;51.45
84224;BME280;74353;51.208;0.304;2023-12-20T08:41:46;101964.23;;;6.01;51.70
84224;BME280;74353;51.208;0.304;2023-12-20T08:44:11;101966.00;;;6.16;51.87
84224;BME280;74353;51.208;0.304;2023-12-20T08:46:39;101950.37;;;5.97;52.02
84224;BME280;74353;51.208;0.304;2023-12-20T08:49:05;101951.70;;;6.50;51.60
84224;BME280;74353;51.208;0.304;2023-12-20T08:51:31;101953.53;;;6.29;52.08
84224;BME280;74353;51.208;0.304;2023-12-20T08:53:57;101953.29;;;6.39;52.09
84224;BME280;74353;51.208;0.304;2023-12-20T08:56:23;101943.62;;;6.36;52.14
84224;BME280;74353;51.208;0.304;2023-12-20T08:58:48;101941.59;;;6.19;52.15
84224;BME280;74353;51.208;0.304;2023-12-20T09:01:14;101946.18;;;5.85;52.52
84224;BME280;74353;51.208;0.304;2023-12-20T09:03:42;101947.24;;;6.48;52.35
84224;BME280;74353;51.208;0.304;2023-12-20T09:06:07;101940.18;;;6.51;52.45
84224;BME280;74353;51.208;0.304;2023-12-20T09:08:33;101940.46;;;6.59;52.50
84224;BME280;74353;51.208;0.304;2023-12-20T09:10:59;101935.13;;;6.41;52.45
84224;BME280;74353;51.208;0.304;2023-12-20T09:13:26;101936.02;;;6.42;52.72
84224;BME280;74353;51.208;0.304;2023-12-20T09:15:52;101936.39;;;6.76;52.52
84224;BME280;74353;51.208;0.304;2023-12-20T09:18:17;101933.01;;;6.16;52.87
84224;BME280;74353;51.208;0.304;2023-12-20T09:20:45;101938.31;;;6.25;52.87
84224;BME280;74353;51.208;0.304;2023-12-20T09:23:12;101933.78;;;6.52;52.94
84224;BME280;74353;51.208;0.304;2023-12-20T09:25:36;101931.14;;;6.48;53.19
84224;BME280;74353;51.208;0.304;2023-12-20T09:28:04;101936.32;;;6.63;53.13
84224;BME280;74353;51.208;0.304;2023-12-20T09:30:29;101927.01;;;6.50;53.05
84224;BME280;74353;51.208;0.304;2023-12-20T09:32:55;101932.40;;;6.40;53.40
84224;BME280;74353;51.208;0.304;2023-12-20T09:35:21;101927.05;;;6.74;53.34
84224;BME280;74353;51.208;0.304;2023-12-20T09:37:48;101925.35;;;6.57;53.36
84224;BME280;74353;51.208;0.304;2023-12-20T09:40:14;101938.19;;;6.61;53.41
84224;BME280;74353;51.208;0.304;2023-12-20T09:42:47;101928.64;;;6.51;53.85
84224;BME280;74353;51.208;0.304;2023-12-20T09:45:09;101930.16;;;6.76;53.52
84224;BME280;74353;51.208;0.304;2023-12-20T09:47:33;101927.67;;;6.88;53.46
84224;BME280;74353;51.208;0.304;2023-12-20T09:49:58;101922.91;;;6.95;53.44
84224;BME280;74353;51.208;0.304;2023-12-20T09:52:24;101937.29;;;6.93;53.62
84224;BME280;74353;51.208;0.304;2023-12-20T09:54:52;101948.27;;;6.95;53.90
84224;BME280;74353;51.208;0.304;2023-12-20T09:57:16;101936.75;;;7.10;53.81
84224;BME280;74353;51.208;0.304;2023-12-20T09:59:43;101944.57;;;7.19;53.81
84224;BME280;74353;51.208;0.304;2023-12-20T10:02:13;101941.05;;;6.97;53.56
84224;BME280;74353;51.208;0.304;2023-12-20T10:04:36;101934.22;;;7.44;53.78
84224;BME280;74353;51.208;0.304;2023-12-20T10:07:04;101938.96;;;7.68;53.49
84224;BME280;74353;51.208;0.304;2023-12-20T10:09:31;101942.04;;;7.78;53.68
84224;BME280;74353;51.208;0.304;2023-12-20T10:11:54;101944.30;;;7.68;54.14
84224;BME280;74353;51.208;0.304;2023-12-20T10:14:22;101941.44;;;7.58;53.92
84224;BME280;74353;51.208;0.304;2023-12-20T10:16:49;101932.35;;;7.68;53.87
84224;BME280;74353;51.208;0.304;2023-12-20T10:19:16;101922.97;;;7.78;53.76
84224;BME280;74353;51.208;0.304;2023-12-20T10:21:41;101928.01;;;8.11;53.79
84224;BME280;74353;51.208;0.304;2023-12-20T10:24:07;101926.77;;;7.54;54.10
84224;BME280;74353;51.208;0.304;2023-12-20T10:26:33;101914.86;;;8.10;53.99
84224;BME280;74353;51.208;0.304;2023-12-20T10:29:00;101912.32;;;8.18;53.48
84224;BME280;74353;51.208;0.304;2023-12-20T10:31:28;101921.89;;;8.04;53.39
84224;BME280;74353;51.208;0.304;2023-12-20T10:33:53;101915.42;;;8.30;52.87
84224;BME280;74353;51.208;0.304;2023-12-20T10:36:21;101918.68;;;8.40;53.24
84224;BME280;74353;51.208;0.304;2023-12-20T10:38:53;101915.95;;;8.12;53.35
84224;BME280;74353;51.208;0.304;2023-12-20T10:41:24;101901.80;;;8.53;53.13
84224;BME280;74353;51.208;0.304;2023-12-20T10:43:46;101904.47;;;8.11;53.53
84224;BME280;74353;51.208;0.304;2023-12-20T10:46:13;101903.86;;;8.31;53.26
84224;BME280;74353;51.208;0.304;2023-12-20T10:48:41;101898.53;;;8.45;53.01
84224;BME280;74353;51.208;0.304;2023-12-20T10:51:05;101893.88;;;8.27;53.00
84224;BME280;74353;51.208;0.304;2023-12-20T10:53:33;101884.50;;;8.46;53.15
84224;BME280;74353;51.208;0.304;2023-12-20T10:56:00;101869.45;;;8.76;52.59
84224;BME280;74353;51.208;0.304;2023-12-20T10:58:24;101857.52;;;8.48;52.76
84224;BME280;74353;51.208;0.304;2023-12-20T11:00:59;101863.83;;;8.66;53.15
84224;BME280;74353;51.208;0.304;2023-12-20T11:03:19;101865.19;;;8.75;53.07
84224;BME280;74353;51.208;0.304;2023-12-20T11:05:50;101863.54;;;8.70;53.24
84224;BME280;74353;51.208;0.304;2023-12-20T11:08:19;101856.81;;;8.57;52.59
84224;BME280;74353;51.208;0.304;2023-12-20T11:10:46;101850.70;;;8.48;52.82
84224;BME280;74353;51.208;0.304;2023-12-20T11:13:12;101846.41;;;7.56;52.70
84224;BME280;74353;51.208;0.304;2023-12-20T11:15:40;101849.75;;;9.01;52.17
84224;BME280;74353;51.208;0.304;2023-12-20T11:18:05;101847.18;;;8.72;52.33
84224;BME280;74353;51.208;0.304;2023-12-20T11:20:36;101844.35;;;9.00;52.38
84224;BME280;74353;51.208;0.304;2023-12-20T11:22:58;101836.94;;;8.95;52.06
84224;BME280;74353;51.208;0.304;2023-12-20T11:25:23;101837.23;;;8.96;52.41
84224;BME280;74353;51.208;0.304;2023-12-20T11:30:14;101837.47;;;9.19;52.15
84224;BME280;74353;51.208;0.304;2023-12-20T11:32:40;101833.52;;;9.00;51.96
84224;BME280;74353;51.208;0.304;2023-12-20T11:35:17;101828.17;;;8.93;52.13
84224;BME280;74353;51.208;0.304;2023-12-20T11:37:36;101818.94;;;9.33;51.87
84224;BME280;74353;51.208;0.304;2023-12-20T11:40:01;101815.12;;;9.04;52.07
84224;BME280;74353;51.208;0.304;2023-12-20T11:42:26;101809.84;;;8.92;52.35
84224;BME280;74353;51.208;0.304;2023-12-20T11:44:53;101804.95;;;9.18;51.88
84224;BME280;74353;51.208;0.304;2023-12-20T11:47:18;101799.50;;;9.03;52.24
84224;BME280;74353;51.208;0.304;2023-12-20T11:49:47;101793.27;;;8.97;52.00
84224;BME280;74353;51.208;0.304;2023-12-20T11:52:13;101787.02;;;9.35;52.14
84224;BME280;74353;51.208;0.304;2023-12-20T11:54:40;101781.86;;;9.35;51.81
84224;BME280;74353;51.208;0.304;2023-12-20T11:57:07;101785.01;;;9.25;52.00
84224;BME280;74353;51.208;0.304;2023-12-20T11:59:33;101778.21;;;9.36;51.43
84224;BME280;74353;51.208;0.304;2023-12-20T12:02:00;101767.77;;;9.39;51.76
84224;BME280;74353;51.208;0.304;2023-12-20T12:04:25;101775.79;;;9.11;51.90
84224;BME280;74353;51.208;0.304;2023-12-20T12:06:53;101774.51;;;9.45;51.77
84224;BME280;74353;51.208;0.304;2023-12-20T12:09:18;101773.23;;;9.51;51.70
84224;BME280;74353;51.208;0.304;2023-12-20T12:11:43;101754.22;;;9.55;51.67
84224;BME280;74353;51.208;0.304;2023-12-20T12:14:09;101742.20;;;9.47;51.89
84224;BME280;74353;51.208;0.304;2023-12-20T12:16:34;101722.67;;;9.58;51.75
84224;BME280;74353;51.208;0.304;2023-12-20T12:18:59;101714.37;;;9.39;52.27
84224;BME280;74353;51.208;0.304;2023-12-20T12:21:25;101710.97;;;9.64;51.85
84224;BME280;74353;51.208;0.304;2023-12-20T12:23:51;101707.74;;;9.77;51.78
84224;BME280;74353;51.208;0.304;2023-12-20T12:26:19;101708.13;;;9.71;52.15
84224;BME280;74353;51.208;0.304;2023-12-20T12:28:46;101706.46;;;9.85;52.13
84224;BME280;74353;51.208;0.304;2023-12-20T12:31:14;101696.28;;;9.65;52.24
84224;BME280;74353;51.208;0.304;2023-12-20T12:33:41;101680.67;;;10.02;52.14
84224;BME280;74353;51.208;0.304;2023-12-20T12:36:07;101670.14;;;9.85;52.10
84224;BME280;74353;51.208;0.304;2023-12-20T12:38:33;101669.36;;;9.67;52.37
84224;BME280;74353;51.208;0.304;2023-12-20T12:41:00;101670.23;;;9.87;52.02
84224;BME280;74353;51.208;0.304;2023-12-20T12:43:28;101675.15;;;9.83;52.06
84224;BME280;74353;51.208;0.304;2023-12-20T12:45:53;101672.85;;;10.03;51.77
84224;BME280;74353;51.208;0.304;2023-12-20T12:48:19;101671.79;;;10.17;51.87
84224;BME280;74353;51.208;0.304;2023-12-20T12:50:48;101665.24;;;10.03;51.86
84224;BME280;74353;51.208;0.304;2023-12-20T12:53:15;101658.66;;;10.50;51.77
84224;BME280;74353;51.208;0.304;2023-12-20T12:55:41;101664.30;;;10.43;51.69
84224;BME280;74353;51.208;0.304;2023-12-20T12:58:07;101668.69;;;10.55;51.55